sensor_id;sensor_type;location;lat;lon;timestamp;P1;durP1;ratioP1;P2;durP2;ratioP2
36963;SDS011;22878;48.616;35.326;2023-07-16T00:00:27;5.10;;;2.60;;
36963;SDS011;22878;48.616;35.326;2023-07-16T00:02:52;6.90;;;2.50;;
36963;SDS011;22878;48.616;35.326;2023-07-16T00:05:18;4.90;;;2.70;;
36963;SDS011;22878;48.616;35.326;2023-07-16T00:07:43;7.30;;;2.70;;
36963;SDS011;22878;48.616;35.326;2023-07-16T00:10:09;5.60;;;2.40;;
36963;SDS011;22878;48.616;35.326;2023-07-16T00:12:34;6.90;;;2.90;;
36963;SDS011;22878;48.616;35.326;2023-07-16T00:15:00;7.80;;;2.70;;
36963;SDS011;22878;48.616;35.326;2023-07-16T00:17:25;5.60;;;2.80;;
36963;SDS011;22878;48.616;35.326;2023-07-16T00:19:51;9.10;;;2.60;;
36963;SDS011;22878;48.616;35.326;2023-07-16T00:22:16;6.70;;;3.30;;
36963;SDS011;22878;48.616;35.326;2023-07-16T00:24:42;5.10;;;2.90;;
36963;SDS011;22878;48.616;35.326;2023-07-16T00:27:07;4.00;;;2.70;;
36963;SDS011;22878;48.616;35.326;2023-07-16T00:29:33;5.00;;;2.70;;
36963;SDS011;22878;48.616;35.326;2023-07-16T00:31:58;4.50;;;2.40;;
36963;SDS011;22878;48.616;35.326;2023-07-16T00:34:24;4.70;;;2.90;;
36963;SDS011;22878;48.616;35.326;2023-07-16T00:36:50;4.20;;;2.40;;
36963;SDS011;22878;48.616;35.326;2023-07-16T00:39:15;7.40;;;2.70;;
36963;SDS011;22878;48.616;35.326;2023-07-16T00:41:41;7.60;;;3.00;;
36963;SDS011;22878;48.616;35.326;2023-07-16T00:44:06;8.10;;;3.10;;
36963;SDS011;22878;48.616;35.326;2023-07-16T00:46:35;5.60;;;2.60;;
36963;SDS011;22878;48.616;35.326;2023-07-16T00:49:01;4.70;;;2.90;;
36963;SDS011;22878;48.616;35.326;2023-07-16T00:51:27;9.50;;;3.20;;
36963;SDS011;22878;48.616;35.326;2023-07-16T00:53:53;7.30;;;2.80;;
36963;SDS011;22878;48.616;35.326;2023-07-16T00:56:18;5.60;;;2.30;;
36963;SDS011;22878;48.616;35.326;2023-07-16T00:58:44;7.30;;;2.80;;
36963;SDS011;22878;48.616;35.326;2023-07-16T01:01:10;5.80;;;2.80;;
36963;SDS011;22878;48.616;35.326;2023-07-16T01:03:36;5.70;;;2.60;;
36963;SDS011;22878;48.616;35.326;2023-07-16T01:11:02;4.40;;;2.90;;
36963;SDS011;22878;48.616;35.326;2023-07-16T01:13:28;7.10;;;2.50;;
36963;SDS011;22878;48.616;35.326;2023-07-16T01:15:55;5.30;;;3.10;;
36963;SDS011;22878;48.616;35.326;2023-07-16T01:18:20;6.60;;;2.80;;
36963;SDS011;22878;48.616;35.326;2023-07-16T01:20:46;4.90;;;2.60;;
36963;SDS011;22878;48.616;35.326;2023-07-16T01:26:05;6.20;;;3.00;;
36963;SDS011;22878;48.616;35.326;2023-07-16T01:31:40;7.10;;;2.90;;
36963;SDS011;22878;48.616;35.326;2023-07-16T01:34:07;3.40;;;2.40;;
36963;SDS011;22878;48.616;35.326;2023-07-16T01:36:34;8.00;;;3.30;;
36963;SDS011;22878;48.616;35.326;2023-07-16T01:39:03;7.80;;;3.10;;
36963;SDS011;22878;48.616;35.326;2023-07-16T01:41:29;7.10;;;2.90;;
36963;SDS011;22878;48.616;35.326;2023-07-16T01:43:54;7.10;;;2.80;;
36963;SDS011;22878;48.616;35.326;2023-07-16T01:46:20;5.20;;;2.70;;
36963;SDS011;22878;48.616;35.326;2023-07-16T01:48:45;5.30;;;2.70;;
36963;SDS011;22878;48.616;35.326;2023-07-16T01:51:12;8.90;;;3.00;;
36963;SDS011;22878;48.616;35.326;2023-07-16T01:53:39;7.10;;;3.00;;
36963;SDS011;22878;48.616;35.326;2023-07-16T01:56:05;5.10;;;2.80;;
36963;SDS011;22878;48.616;35.326;2023-07-16T01:58:31;5.10;;;2.80;;
36963;SDS011;22878;48.616;35.326;2023-07-16T02:00:56;3.80;;;2.80;;
36963;SDS011;22878;48.616;35.326;2023-07-16T02:03:22;7.10;;;3.00;;
36963;SDS011;22878;48.616;35.326;2023-07-16T02:05:47;8.00;;;3.00;;
36963;SDS011;22878;48.616;35.326;2023-07-16T02:08:13;6.50;;;3.20;;
36963;SDS011;22878;48.616;35.326;2023-07-16T02:10:39;8.60;;;3.00;;
36963;SDS011;22878;48.616;35.326;2023-07-16T02:13:04;4.60;;;2.90;;
36963;SDS011;22878;48.616;35.326;2023-07-16T02:15:30;7.00;;;2.80;;
36963;SDS011;22878;48.616;35.326;2023-07-16T02:17:55;4.50;;;3.10;;
36963;SDS011;22878;48.616;35.326;2023-07-16T02:20:22;9.30;;;3.10;;
36963;SDS011;22878;48.616;35.326;2023-07-16T02:22:47;6.70;;;3.00;;
36963;SDS011;22878;48.616;35.326;2023-07-16T02:25:13;8.10;;;3.00;;
36963;SDS011;22878;48.616;35.326;2023-07-16T02:27:38;11.70;;;3.00;;
36963;SDS011;22878;48.616;35.326;2023-07-16T02:30:04;7.20;;;3.30;;
36963;SDS011;22878;48.616;35.326;2023-07-16T02:32:31;7.30;;;3.00;;
36963;SDS011;22878;48.616;35.326;2023-07-16T02:34:57;11.50;;;3.00;;
36963;SDS011;22878;48.616;35.326;2023-07-16T02:37:23;6.70;;;3.00;;
36963;SDS011;22878;48.616;35.326;2023-07-16T02:39:48;8.70;;;3.10;;
36963;SDS011;22878;48.616;35.326;2023-07-16T02:42:14;4.80;;;2.80;;
36963;SDS011;22878;48.616;35.326;2023-07-16T02:44:40;5.40;;;3.10;;
36963;SDS011;22878;48.616;35.326;2023-07-16T02:47:10;5.90;;;3.00;;
36963;SDS011;22878;48.616;35.326;2023-07-16T02:49:36;8.60;;;3.30;;
36963;SDS011;22878;48.616;35.326;2023-07-16T02:52:02;6.70;;;3.10;;
36963;SDS011;22878;48.616;35.326;2023-07-16T02:54:28;7.30;;;2.90;;
36963;SDS011;22878;48.616;35.326;2023-07-16T02:56:53;5.80;;;2.90;;
36963;SDS011;22878;48.616;35.326;2023-07-16T02:59:19;11.50;;;2.90;;
36963;SDS011;22878;48.616;35.326;2023-07-16T03:01:44;6.40;;;3.00;;
36963;SDS011;22878;48.616;35.326;2023-07-16T03:04:10;5.60;;;2.90;;
36963;SDS011;22878;48.616;35.326;2023-07-16T03:06:35;6.50;;;2.60;;
36963;SDS011;22878;48.616;35.326;2023-07-16T03:09:01;9.10;;;2.90;;
36963;SDS011;22878;48.616;35.326;2023-07-16T03:11:26;5.20;;;2.50;;
36963;SDS011;22878;48.616;35.326;2023-07-16T03:13:52;4.90;;;3.10;;
36963;SDS011;22878;48.616;35.326;2023-07-16T03:16:17;7.60;;;3.20;;
36963;SDS011;22878;48.616;35.326;2023-07-16T03:18:43;7.30;;;3.00;;
36963;SDS011;22878;48.616;35.326;2023-07-16T03:21:10;8.70;;;3.10;;
36963;SDS011;22878;48.616;35.326;2023-07-16T03:23:35;7.50;;;2.90;;
36963;SDS011;22878;48.616;35.326;2023-07-16T03:26:01;5.60;;;2.90;;
36963;SDS011;22878;48.616;35.326;2023-07-16T03:28:26;6.40;;;2.70;;
36963;SDS011;22878;48.616;35.326;2023-07-16T03:30:52;6.00;;;2.80;;
36963;SDS011;22878;48.616;35.326;2023-07-16T03:33:19;5.10;;;2.60;;
36963;SDS011;22878;48.616;35.326;2023-07-16T03:35:45;7.00;;;2.60;;
36963;SDS011;22878;48.616;35.326;2023-07-16T03:38:12;7.20;;;2.60;;
36963;SDS011;22878;48.616;35.326;2023-07-16T03:40:38;8.50;;;3.00;;
36963;SDS011;22878;48.616;35.326;2023-07-16T03:43:04;3.70;;;2.40;;
36963;SDS011;22878;48.616;35.326;2023-07-16T03:45:29;5.50;;;2.50;;
36963;SDS011;22878;48.616;35.326;2023-07-16T03:47:55;6.70;;;2.80;;
36963;SDS011;22878;48.616;35.326;2023-07-16T03:50:21;3.80;;;2.30;;
36963;SDS011;22878;48.616;35.326;2023-07-16T03:52:46;5.50;;;2.60;;
36963;SDS011;22878;48.616;35.326;2023-07-16T03:55:12;5.90;;;2.80;;
36963;SDS011;22878;48.616;35.326;2023-07-16T03:57:37;4.30;;;2.20;;
36963;SDS011;22878;48.616;35.326;2023-07-16T04:00:03;5.10;;;2.30;;
36963;SDS011;22878;48.616;35.326;2023-07-16T04:02:33;7.00;;;2.50;;
36963;SDS011;22878;48.616;35.326;2023-07-16T04:04:58;3.80;;;2.40;;
36963;SDS011;22878;48.616;35.326;2023-07-16T04:07:24;5.50;;;2.30;;
36963;SDS011;22878;48.616;35.326;2023-07-16T04:09:49;3.20;;;2.40;;
36963;SDS011;22878;48.616;35.326;2023-07-16T04:12:16;3.90;;;2.40;;
36963;SDS011;22878;48.616;35.326;2023-07-16T04:14:42;10.10;;;2.50;;
36963;SDS011;22878;48.616;35.326;2023-07-16T04:17:07;8.70;;;2.70;;
36963;SDS011;22878;48.616;35.326;2023-07-16T04:19:33;4.70;;;2.40;;
36963;SDS011;22878;48.616;35.326;2023-07-16T04:21:59;3.40;;;2.60;;
36963;SDS011;22878;48.616;35.326;2023-07-16T04:24:24;8.60;;;3.00;;
36963;SDS011;22878;48.616;35.326;2023-07-16T04:26:52;6.80;;;3.10;;
36963;SDS011;22878;48.616;35.326;2023-07-16T04:29:18;5.90;;;2.70;;
36963;SDS011;22878;48.616;35.326;2023-07-16T04:31:44;5.30;;;2.70;;
36963;SDS011;22878;48.616;35.326;2023-07-16T04:34:09;8.20;;;2.90;;
36963;SDS011;22878;48.616;35.326;2023-07-16T04:36:35;5.30;;;2.80;;
36963;SDS011;22878;48.616;35.326;2023-07-16T04:39:00;6.40;;;3.00;;
36963;SDS011;22878;48.616;35.326;2023-07-16T04:41:26;3.90;;;2.40;;
36963;SDS011;22878;48.616;35.326;2023-07-16T04:43:52;4.80;;;3.00;;
36963;SDS011;22878;48.616;35.326;2023-07-16T04:46:18;4.50;;;2.90;;
36963;SDS011;22878;48.616;35.326;2023-07-16T04:48:43;5.50;;;2.60;;
36963;SDS011;22878;48.616;35.326;2023-07-16T04:51:09;5.50;;;3.10;;
36963;SDS011;22878;48.616;35.326;2023-07-16T04:53:37;7.30;;;2.80;;
36963;SDS011;22878;48.616;35.326;2023-07-16T04:56:02;12.20;;;2.60;;
36963;SDS011;22878;48.616;35.326;2023-07-16T04:58:28;7.60;;;3.10;;
36963;SDS011;22878;48.616;35.326;2023-07-16T05:00:54;6.40;;;3.10;;
36963;SDS011;22878;48.616;35.326;2023-07-16T05:03:19;10.50;;;3.10;;
36963;SDS011;22878;48.616;35.326;2023-07-16T05:05:44;3.50;;;2.60;;
36963;SDS011;22878;48.616;35.326;2023-07-16T05:08:10;5.90;;;3.00;;
36963;SDS011;22878;48.616;35.326;2023-07-16T05:10:36;4.50;;;3.20;;
36963;SDS011;22878;48.616;35.326;2023-07-16T05:13:01;7.30;;;3.30;;
36963;SDS011;22878;48.616;35.326;2023-07-16T05:15:28;5.60;;;3.10;;
36963;SDS011;22878;48.616;35.326;2023-07-16T05:17:54;5.90;;;3.20;;
36963;SDS011;22878;48.616;35.326;2023-07-16T05:20:22;4.20;;;2.80;;
36963;SDS011;22878;48.616;35.326;2023-07-16T05:22:48;3.40;;;3.10;;
36963;SDS011;22878;48.616;35.326;2023-07-16T05:25:13;4.90;;;3.10;;
36963;SDS011;22878;48.616;35.326;2023-07-16T05:27:39;4.10;;;3.00;;
36963;SDS011;22878;48.616;35.326;2023-07-16T05:30:04;7.50;;;2.70;;
36963;SDS011;22878;48.616;35.326;2023-07-16T05:32:30;6.10;;;3.30;;
36963;SDS011;22878;48.616;35.326;2023-07-16T05:34:56;6.60;;;3.20;;
36963;SDS011;22878;48.616;35.326;2023-07-16T05:37:21;6.80;;;2.60;;
36963;SDS011;22878;48.616;35.326;2023-07-16T05:39:47;5.90;;;2.90;;
36963;SDS011;22878;48.616;35.326;2023-07-16T05:42:12;6.50;;;3.70;;
36963;SDS011;22878;48.616;35.326;2023-07-16T05:44:38;6.40;;;3.00;;
36963;SDS011;22878;48.616;35.326;2023-07-16T05:47:03;3.50;;;2.70;;
36963;SDS011;22878;48.616;35.326;2023-07-16T05:49:29;4.40;;;3.20;;
36963;SDS011;22878;48.616;35.326;2023-07-16T05:51:55;6.30;;;3.20;;
36963;SDS011;22878;48.616;35.326;2023-07-16T05:54:21;6.40;;;3.10;;
36963;SDS011;22878;48.616;35.326;2023-07-16T05:56:47;3.90;;;3.10;;
36963;SDS011;22878;48.616;35.326;2023-07-16T05:59:12;3.50;;;3.10;;
36963;SDS011;22878;48.616;35.326;2023-07-16T06:01:38;6.30;;;2.90;;
36963;SDS011;22878;48.616;35.326;2023-07-16T06:04:03;7.50;;;2.80;;
36963;SDS011;22878;48.616;35.326;2023-07-16T06:06:29;4.70;;;2.90;;
36963;SDS011;22878;48.616;35.326;2023-07-16T06:08:56;6.60;;;3.00;;
36963;SDS011;22878;48.616;35.326;2023-07-16T06:11:21;6.60;;;3.20;;
36963;SDS011;22878;48.616;35.326;2023-07-16T06:13:47;5.80;;;2.80;;
36963;SDS011;22878;48.616;35.326;2023-07-16T06:16:12;10.70;;;2.80;;
36963;SDS011;22878;48.616;35.326;2023-07-16T06:18:38;2.90;;;2.40;;
36963;SDS011;22878;48.616;35.326;2023-07-16T06:21:03;5.80;;;2.40;;
36963;SDS011;22878;48.616;35.326;2023-07-16T06:23:29;5.30;;;2.30;;
36963;SDS011;22878;48.616;35.326;2023-07-16T06:25:55;2.60;;;2.10;;
36963;SDS011;22878;48.616;35.326;2023-07-16T06:28:21;3.60;;;2.80;;
36963;SDS011;22878;48.616;35.326;2023-07-16T06:30:47;3.60;;;2.30;;
36963;SDS011;22878;48.616;35.326;2023-07-16T06:33:12;5.20;;;2.70;;
36963;SDS011;22878;48.616;35.326;2023-07-16T06:35:38;4.00;;;2.70;;
36963;SDS011;22878;48.616;35.326;2023-07-16T06:38:06;6.70;;;2.60;;
36963;SDS011;22878;48.616;35.326;2023-07-16T06:40:31;3.70;;;2.50;;
36963;SDS011;22878;48.616;35.326;2023-07-16T06:42:57;6.70;;;2.50;;
36963;SDS011;22878;48.616;35.326;2023-07-16T06:45:22;3.10;;;2.30;;
36963;SDS011;22878;48.616;35.326;2023-07-16T06:47:48;4.70;;;2.50;;
36963;SDS011;22878;48.616;35.326;2023-07-16T06:50:14;2.60;;;2.40;;
36963;SDS011;22878;48.616;35.326;2023-07-16T06:52:39;5.80;;;2.30;;
36963;SDS011;22878;48.616;35.326;2023-07-16T06:55:05;3.60;;;2.60;;
36963;SDS011;22878;48.616;35.326;2023-07-16T06:57:31;3.30;;;2.40;;
36963;SDS011;22878;48.616;35.326;2023-07-16T06:59:56;3.00;;;2.10;;
36963;SDS011;22878;48.616;35.326;2023-07-16T07:02:22;4.70;;;2.20;;
36963;SDS011;22878;48.616;35.326;2023-07-16T07:04:47;4.70;;;2.40;;
36963;SDS011;22878;48.616;35.326;2023-07-16T07:07:13;6.10;;;2.50;;
36963;SDS011;22878;48.616;35.326;2023-07-16T07:09:38;6.00;;;2.70;;
36963;SDS011;22878;48.616;35.326;2023-07-16T07:12:04;3.70;;;2.40;;
36963;SDS011;22878;48.616;35.326;2023-07-16T07:14:30;2.50;;;2.30;;
36963;SDS011;22878;48.616;35.326;2023-07-16T07:16:56;8.10;;;2.70;;
36963;SDS011;22878;48.616;35.326;2023-07-16T07:19:22;4.20;;;2.40;;
36963;SDS011;22878;48.616;35.326;2023-07-16T07:21:47;6.40;;;2.20;;
36963;SDS011;22878;48.616;35.326;2023-07-16T07:24:13;3.80;;;2.50;;
36963;SDS011;22878;48.616;35.326;2023-07-16T07:26:38;4.50;;;2.50;;
36963;SDS011;22878;48.616;35.326;2023-07-16T07:29:04;4.40;;;2.50;;
36963;SDS011;22878;48.616;35.326;2023-07-16T07:31:29;3.80;;;2.20;;
36963;SDS011;22878;48.616;35.326;2023-07-16T07:33:55;2.90;;;2.10;;
36963;SDS011;22878;48.616;35.326;2023-07-16T07:36:22;2.20;;;1.90;;
36963;SDS011;22878;48.616;35.326;2023-07-16T07:38:48;5.90;;;2.20;;
36963;SDS011;22878;48.616;35.326;2023-07-16T07:41:14;3.70;;;1.90;;
36963;SDS011;22878;48.616;35.326;2023-07-16T07:43:39;9.80;;;4.20;;
36963;SDS011;22878;48.616;35.326;2023-07-16T07:46:05;7.50;;;3.10;;
36963;SDS011;22878;48.616;35.326;2023-07-16T07:48:31;9.40;;;2.80;;
36963;SDS011;22878;48.616;35.326;2023-07-16T07:50:56;6.50;;;2.30;;
36963;SDS011;22878;48.616;35.326;2023-07-16T07:53:22;6.90;;;2.20;;
36963;SDS011;22878;48.616;35.326;2023-07-16T07:55:47;4.00;;;2.00;;
36963;SDS011;22878;48.616;35.326;2023-07-16T07:58:13;3.50;;;2.30;;
36963;SDS011;22878;48.616;35.326;2023-07-16T08:00:39;3.50;;;2.00;;
36963;SDS011;22878;48.616;35.326;2023-07-16T08:03:04;2.90;;;1.90;;
36963;SDS011;22878;48.616;35.326;2023-07-16T08:05:30;3.50;;;2.20;;
36963;SDS011;22878;48.616;35.326;2023-07-16T08:07:56;3.10;;;1.80;;
36963;SDS011;22878;48.616;35.326;2023-07-16T08:10:22;5.70;;;2.00;;
36963;SDS011;22878;48.616;35.326;2023-07-16T08:12:48;4.70;;;2.00;;
36963;SDS011;22878;48.616;35.326;2023-07-16T08:15:13;7.20;;;2.20;;
36963;SDS011;22878;48.616;35.326;2023-07-16T08:17:43;2.40;;;1.90;;
36963;SDS011;22878;48.616;35.326;2023-07-16T08:20:09;3.30;;;1.90;;
36963;SDS011;22878;48.616;35.326;2023-07-16T08:22:36;4.90;;;2.10;;
36963;SDS011;22878;48.616;35.326;2023-07-16T08:25:01;5.90;;;2.00;;
36963;SDS011;22878;48.616;35.326;2023-07-16T08:27:28;5.50;;;2.20;;
36963;SDS011;22878;48.616;35.326;2023-07-16T08:29:54;3.50;;;1.90;;
36963;SDS011;22878;48.616;35.326;2023-07-16T08:32:20;2.30;;;1.80;;
36963;SDS011;22878;48.616;35.326;2023-07-16T08:34:46;6.90;;;2.20;;
36963;SDS011;22878;48.616;35.326;2023-07-16T08:37:12;7.00;;;1.90;;
36963;SDS011;22878;48.616;35.326;2023-07-16T08:39:38;2.40;;;1.60;;
36963;SDS011;22878;48.616;35.326;2023-07-16T08:42:04;3.10;;;1.60;;
36963;SDS011;22878;48.616;35.326;2023-07-16T08:44:30;2.60;;;1.50;;
36963;SDS011;22878;48.616;35.326;2023-07-16T08:46:55;2.80;;;1.80;;
36963;SDS011;22878;48.616;35.326;2023-07-16T08:49:21;1.80;;;1.60;;
36963;SDS011;22878;48.616;35.326;2023-07-16T08:51:48;4.50;;;1.60;;
36963;SDS011;22878;48.616;35.326;2023-07-16T08:54:14;8.10;;;2.20;;
36963;SDS011;22878;48.616;35.326;2023-07-16T08:56:43;5.90;;;2.10;;
36963;SDS011;22878;48.616;35.326;2023-07-16T08:59:09;3.90;;;2.20;;
36963;SDS011;22878;48.616;35.326;2023-07-16T09:01:36;3.50;;;1.80;;
36963;SDS011;22878;48.616;35.326;2023-07-16T09:04:02;2.90;;;1.50;;
36963;SDS011;22878;48.616;35.326;2023-07-16T09:06:28;5.90;;;1.50;;
36963;SDS011;22878;48.616;35.326;2023-07-16T09:08:53;7.60;;;1.60;;
36963;SDS011;22878;48.616;35.326;2023-07-16T09:11:20;2.50;;;1.60;;
36963;SDS011;22878;48.616;35.326;2023-07-16T09:13:47;6.40;;;1.80;;
36963;SDS011;22878;48.616;35.326;2023-07-16T09:16:13;6.80;;;2.00;;
36963;SDS011;22878;48.616;35.326;2023-07-16T09:18:41;4.30;;;1.50;;
36963;SDS011;22878;48.616;35.326;2023-07-16T09:21:07;1.80;;;1.60;;
36963;SDS011;22878;48.616;35.326;2023-07-16T09:23:33;6.20;;;1.70;;
36963;SDS011;22878;48.616;35.326;2023-07-16T09:25:59;3.90;;;1.60;;
36963;SDS011;22878;48.616;35.326;2023-07-16T09:28:29;5.20;;;1.50;;
36963;SDS011;22878;48.616;35.326;2023-07-16T09:30:55;2.40;;;1.50;;
36963;SDS011;22878;48.616;35.326;2023-07-16T09:33:28;4.00;;;1.40;;
36963;SDS011;22878;48.616;35.326;2023-07-16T09:35:53;2.70;;;1.40;;
36963;SDS011;22878;48.616;35.326;2023-07-16T09:38:22;6.90;;;1.50;;
36963;SDS011;22878;48.616;35.326;2023-07-16T09:40:49;4.10;;;1.20;;
36963;SDS011;22878;48.616;35.326;2023-07-16T09:43:16;3.90;;;1.20;;
36963;SDS011;22878;48.616;35.326;2023-07-16T09:45:42;3.80;;;1.30;;
36963;SDS011;22878;48.616;35.326;2023-07-16T09:48:08;6.00;;;1.50;;
36963;SDS011;22878;48.616;35.326;2023-07-16T09:50:34;3.60;;;1.20;;
36963;SDS011;22878;48.616;35.326;2023-07-16T09:53:01;6.60;;;1.60;;
36963;SDS011;22878;48.616;35.326;2023-07-16T09:55:30;1.80;;;1.20;;
36963;SDS011;22878;48.616;35.326;2023-07-16T09:57:59;2.20;;;1.00;;
36963;SDS011;22878;48.616;35.326;2023-07-16T10:00:27;3.20;;;1.50;;
36963;SDS011;22878;48.616;35.326;2023-07-16T10:02:54;4.50;;;1.30;;
36963;SDS011;22878;48.616;35.326;2023-07-16T10:05:27;3.10;;;1.40;;
36963;SDS011;22878;48.616;35.326;2023-07-16T10:07:57;4.30;;;1.40;;
36963;SDS011;22878;48.616;35.326;2023-07-16T10:10:37;5.20;;;1.50;;
36963;SDS011;22878;48.616;35.326;2023-07-16T10:13:04;3.90;;;1.10;;
36963;SDS011;22878;48.616;35.326;2023-07-16T10:15:33;3.50;;;1.00;;
36963;SDS011;22878;48.616;35.326;2023-07-16T10:17:58;2.30;;;1.20;;
36963;SDS011;22878;48.616;35.326;2023-07-16T10:20:31;2.40;;;1.20;;
36963;SDS011;22878;48.616;35.326;2023-07-16T10:22:58;1.70;;;1.10;;
36963;SDS011;22878;48.616;35.326;2023-07-16T10:25:36;3.90;;;1.30;;
36963;SDS011;22878;48.616;35.326;2023-07-16T10:28:02;2.80;;;1.70;;
36963;SDS011;22878;48.616;35.326;2023-07-16T10:30:28;1.90;;;1.50;;
36963;SDS011;22878;48.616;35.326;2023-07-16T10:32:54;2.00;;;1.30;;
36963;SDS011;22878;48.616;35.326;2023-07-16T10:35:19;5.30;;;1.30;;
36963;SDS011;22878;48.616;35.326;2023-07-16T10:37:45;2.20;;;1.20;;
36963;SDS011;22878;48.616;35.326;2023-07-16T10:40:11;2.10;;;1.00;;
36963;SDS011;22878;48.616;35.326;2023-07-16T10:42:39;3.10;;;1.30;;
36963;SDS011;22878;48.616;35.326;2023-07-16T10:45:06;2.10;;;0.90;;
36963;SDS011;22878;48.616;35.326;2023-07-16T10:47:33;1.60;;;1.20;;
36963;SDS011;22878;48.616;35.326;2023-07-16T10:50:00;3.30;;;1.20;;
36963;SDS011;22878;48.616;35.326;2023-07-16T10:52:28;8.90;;;1.50;;
36963;SDS011;22878;48.616;35.326;2023-07-16T10:54:53;3.00;;;1.30;;
36963;SDS011;22878;48.616;35.326;2023-07-16T10:57:20;5.20;;;1.10;;
36963;SDS011;22878;48.616;35.326;2023-07-16T10:59:46;1.10;;;1.00;;
36963;SDS011;22878;48.616;35.326;2023-07-16T11:02:14;2.70;;;1.20;;
36963;SDS011;22878;48.616;35.326;2023-07-16T11:04:42;2.80;;;1.00;;
36963;SDS011;22878;48.616;35.326;2023-07-16T11:07:10;1.20;;;1.10;;
36963;SDS011;22878;48.616;35.326;2023-07-16T11:09:43;2.40;;;1.00;;
36963;SDS011;22878;48.616;35.326;2023-07-16T11:12:10;1.90;;;1.10;;
36963;SDS011;22878;48.616;35.326;2023-07-16T11:14:37;1.10;;;0.90;;
36963;SDS011;22878;48.616;35.326;2023-07-16T11:17:07;5.80;;;1.30;;
36963;SDS011;22878;48.616;35.326;2023-07-16T11:19:34;1.20;;;1.00;;
36963;SDS011;22878;48.616;35.326;2023-07-16T11:22:01;2.20;;;1.10;;
36963;SDS011;22878;48.616;35.326;2023-07-16T11:24:28;2.20;;;1.10;;
36963;SDS011;22878;48.616;35.326;2023-07-16T11:27:14;2.30;;;0.90;;
36963;SDS011;22878;48.616;35.326;2023-07-16T11:29:44;6.00;;;1.60;;
36963;SDS011;22878;48.616;35.326;2023-07-16T11:32:11;2.50;;;1.10;;
36963;SDS011;22878;48.616;35.326;2023-07-16T11:34:37;4.20;;;1.10;;
36963;SDS011;22878;48.616;35.326;2023-07-16T11:37:11;2.30;;;1.30;;
36963;SDS011;22878;48.616;35.326;2023-07-16T11:39:37;3.20;;;1.10;;
36963;SDS011;22878;48.616;35.326;2023-07-16T11:42:03;4.00;;;1.20;;
36963;SDS011;22878;48.616;35.326;2023-07-16T11:44:33;1.90;;;1.10;;
36963;SDS011;22878;48.616;35.326;2023-07-16T11:46:59;1.50;;;0.90;;
36963;SDS011;22878;48.616;35.326;2023-07-16T11:49:25;6.10;;;1.30;;
36963;SDS011;22878;48.616;35.326;2023-07-16T11:51:51;1.60;;;0.90;;
36963;SDS011;22878;48.616;35.326;2023-07-16T11:54:17;2.30;;;1.10;;
36963;SDS011;22878;48.616;35.326;2023-07-16T11:56:42;5.20;;;1.50;;
36963;SDS011;22878;48.616;35.326;2023-07-16T11:59:08;17.00;;;2.60;;
36963;SDS011;22878;48.616;35.326;2023-07-16T12:01:33;9.80;;;2.00;;
36963;SDS011;22878;48.616;35.326;2023-07-16T12:03:59;5.70;;;1.70;;
36963;SDS011;22878;48.616;35.326;2023-07-16T12:06:24;5.70;;;1.60;;
36963;SDS011;22878;48.616;35.326;2023-07-16T12:08:50;5.00;;;1.40;;
36963;SDS011;22878;48.616;35.326;2023-07-16T12:11:15;2.30;;;1.10;;
36963;SDS011;22878;48.616;35.326;2023-07-16T12:13:41;6.90;;;1.20;;
36963;SDS011;22878;48.616;35.326;2023-07-16T12:16:06;1.90;;;1.30;;
36963;SDS011;22878;48.616;35.326;2023-07-16T12:18:32;3.30;;;1.20;;
36963;SDS011;22878;48.616;35.326;2023-07-16T12:20:58;4.60;;;1.20;;
36963;SDS011;22878;48.616;35.326;2023-07-16T12:23:29;2.30;;;1.10;;
36963;SDS011;22878;48.616;35.326;2023-07-16T12:25:54;2.00;;;0.90;;
36963;SDS011;22878;48.616;35.326;2023-07-16T12:28:20;6.20;;;1.10;;
36963;SDS011;22878;48.616;35.326;2023-07-16T12:30:45;3.90;;;1.00;;
36963;SDS011;22878;48.616;35.326;2023-07-16T12:33:11;3.60;;;1.00;;
36963;SDS011;22878;48.616;35.326;2023-07-16T12:35:36;5.10;;;1.00;;
36963;SDS011;22878;48.616;35.326;2023-07-16T12:38:02;2.70;;;1.10;;
36963;SDS011;22878;48.616;35.326;2023-07-16T12:40:29;6.20;;;1.60;;
36963;SDS011;22878;48.616;35.326;2023-07-16T12:42:55;6.40;;;1.10;;
36963;SDS011;22878;48.616;35.326;2023-07-16T12:45:21;2.10;;;1.00;;
36963;SDS011;22878;48.616;35.326;2023-07-16T12:47:46;2.40;;;0.80;;
36963;SDS011;22878;48.616;35.326;2023-07-16T12:50:14;4.30;;;1.40;;
36963;SDS011;22878;48.616;35.326;2023-07-16T12:52:53;3.20;;;1.00;;
36963;SDS011;22878;48.616;35.326;2023-07-16T12:55:19;4.10;;;1.40;;
36963;SDS011;22878;48.616;35.326;2023-07-16T12:57:45;4.90;;;1.30;;
36963;SDS011;22878;48.616;35.326;2023-07-16T13:00:10;2.80;;;1.00;;
36963;SDS011;22878;48.616;35.326;2023-07-16T13:02:36;3.00;;;1.10;;
36963;SDS011;22878;48.616;35.326;2023-07-16T13:05:03;1.30;;;1.00;;
36963;SDS011;22878;48.616;35.326;2023-07-16T13:07:29;2.40;;;0.70;;
36963;SDS011;22878;48.616;35.326;2023-07-16T13:09:56;7.30;;;1.60;;
36963;SDS011;22878;48.616;35.326;2023-07-16T13:12:22;3.70;;;1.10;;
36963;SDS011;22878;48.616;35.326;2023-07-16T13:14:47;3.90;;;0.90;;
36963;SDS011;22878;48.616;35.326;2023-07-16T13:17:13;2.20;;;0.90;;
36963;SDS011;22878;48.616;35.326;2023-07-16T13:19:40;1.70;;;1.00;;
36963;SDS011;22878;48.616;35.326;2023-07-16T13:22:06;4.00;;;1.10;;
36963;SDS011;22878;48.616;35.326;2023-07-16T13:24:32;3.30;;;1.20;;
36963;SDS011;22878;48.616;35.326;2023-07-16T13:26:58;6.50;;;1.70;;
36963;SDS011;22878;48.616;35.326;2023-07-16T13:29:23;10.60;;;2.50;;
36963;SDS011;22878;48.616;35.326;2023-07-16T13:31:49;14.90;;;1.90;;
36963;SDS011;22878;48.616;35.326;2023-07-16T13:34:14;7.80;;;1.30;;
36963;SDS011;22878;48.616;35.326;2023-07-16T13:36:40;1.90;;;0.90;;
36963;SDS011;22878;48.616;35.326;2023-07-16T13:39:05;4.00;;;1.30;;
36963;SDS011;22878;48.616;35.326;2023-07-16T13:41:34;2.50;;;1.00;;
36963;SDS011;22878;48.616;35.326;2023-07-16T13:44:00;3.20;;;1.10;;
36963;SDS011;22878;48.616;35.326;2023-07-16T13:46:25;5.70;;;1.40;;
36963;SDS011;22878;48.616;35.326;2023-07-16T13:48:51;2.40;;;1.00;;
36963;SDS011;22878;48.616;35.326;2023-07-16T13:51:16;3.50;;;0.90;;
36963;SDS011;22878;48.616;35.326;2023-07-16T13:53:42;2.70;;;1.00;;
36963;SDS011;22878;48.616;35.326;2023-07-16T13:56:07;3.10;;;1.10;;
36963;SDS011;22878;48.616;35.326;2023-07-16T13:58:33;1.00;;;0.70;;
36963;SDS011;22878;48.616;35.326;2023-07-16T14:00:58;1.70;;;1.00;;
36963;SDS011;22878;48.616;35.326;2023-07-16T14:03:24;4.70;;;1.40;;
36963;SDS011;22878;48.616;35.326;2023-07-16T14:05:50;1.50;;;1.00;;
36963;SDS011;22878;48.616;35.326;2023-07-16T14:08:15;3.60;;;1.20;;
36963;SDS011;22878;48.616;35.326;2023-07-16T14:10:41;2.20;;;1.20;;
36963;SDS011;22878;48.616;35.326;2023-07-16T14:13:06;4.10;;;1.10;;
36963;SDS011;22878;48.616;35.326;2023-07-16T14:15:32;3.30;;;1.30;;
36963;SDS011;22878;48.616;35.326;2023-07-16T14:17:57;5.20;;;1.10;;
36963;SDS011;22878;48.616;35.326;2023-07-16T14:20:23;3.40;;;1.20;;
36963;SDS011;22878;48.616;35.326;2023-07-16T14:22:48;2.40;;;1.20;;
36963;SDS011;22878;48.616;35.326;2023-07-16T14:25:14;2.40;;;1.00;;
36963;SDS011;22878;48.616;35.326;2023-07-16T14:27:39;1.90;;;1.10;;
36963;SDS011;22878;48.616;35.326;2023-07-16T14:30:05;6.00;;;1.30;;
36963;SDS011;22878;48.616;35.326;2023-07-16T14:32:32;4.10;;;1.40;;
36963;SDS011;22878;48.616;35.326;2023-07-16T14:34:58;2.40;;;1.50;;
36963;SDS011;22878;48.616;35.326;2023-07-16T14:37:25;3.50;;;1.70;;